createdAt,value
2023-01-29T00:00:12.214Z,103052.34
2023-01-29T00:01:47.085Z,103046.97
2023-01-29T00:03:19.218Z,103043.41
2023-01-29T00:04:51.293Z,103050.09
2023-01-29T00:06:26.196Z,103042.47
2023-01-29T00:07:58.244Z,103043.56
2023-01-29T00:09:31.630Z,103040.41
2023-01-29T00:11:05.851Z,103036.06
2023-01-29T00:12:37.903Z,103043.47
2023-01-29T00:14:10.081Z,103035.31
2023-01-29T00:15:42.274Z,103035.97
2023-01-29T00:17:14.392Z,103035.19
2023-01-29T00:18:46.806Z,103032.63
2023-01-29T00:20:19.442Z,103026.94
2023-01-29T00:21:51.626Z,103029.63
2023-01-29T00:23:23.824Z,103027.84
2023-01-29T00:24:55.781Z,103031.44
2023-01-29T00:26:28.133Z,103026.28
2023-01-29T00:28:00.123Z,103025.63
2023-01-29T00:29:32.122Z,103028.34
2023-01-29T00:31:12.279Z,103023.44
2023-01-29T00:32:44.292Z,103024.34
2023-01-29T00:34:16.325Z,103022.78
2023-01-29T00:35:48.497Z,103020.00
2023-01-29T00:37:20.487Z,103019.59
2023-01-29T00:38:58.992Z,103021.03
2023-01-29T00:40:50.974Z,103021.72
2023-01-29T00:42:41.505Z,103024.16
2023-01-29T00:44:34.685Z,103018.00
2023-01-29T00:46:06.814Z,103019.56
2023-01-29T00:47:38.838Z,103023.13
2023-01-29T00:49:10.869Z,103023.13
2023-01-29T00:50:42.791Z,103020.56
2023-01-29T00:52:35.106Z,103028.16
2023-01-29T00:54:09.696Z,103016.66
2023-01-29T00:55:41.811Z,103014.97
2023-01-29T00:57:13.719Z,103020.00
2023-01-29T00:58:45.689Z,103013.19
2023-01-29T01:00:19.377Z,103020.66
2023-01-29T01:02:10.008Z,103017.72
2023-01-29T01:03:46.235Z,103020.16
2023-01-29T01:05:19.217Z,103021.41
2023-01-29T01:06:51.172Z,103010.94
2023-01-29T01:08:41.339Z,103011.69
2023-01-29T01:10:22.831Z,103010.81
2023-01-29T01:11:54.977Z,103005.69
2023-01-29T01:13:27.298Z,102998.88
2023-01-29T01:14:59.299Z,103001.22
2023-01-29T01:16:31.509Z,102993.50
2023-01-29T01:18:04.058Z,102994.28
2023-01-29T01:19:36.461Z,102988.50
2023-01-29T01:21:08.780Z,102982.59
2023-01-29T01:22:40.907Z,102975.56
2023-01-29T01:24:13.413Z,102984.91
2023-01-29T01:25:46.165Z,102987.59
2023-01-29T01:27:19.789Z,102983.13
2023-01-29T01:28:52.187Z,102987.13
2023-01-29T01:30:24.747Z,102986.25
2023-01-29T01:31:56.763Z,102983.78
2023-01-29T01:33:29.247Z,102979.31
2023-01-29T01:35:01.187Z,102982.13
2023-01-29T01:36:33.118Z,102988.16
2023-01-29T01:38:05.253Z,102984.38
2023-01-29T01:39:37.399Z,102988.50
2023-01-29T01:41:09.355Z,102992.19
2023-01-29T01:42:41.335Z,102991.53
2023-01-29T01:44:50.817Z,102984.97
2023-01-29T01:46:23.376Z,102993.44
2023-01-29T01:48:09.208Z,102983.41
2023-01-29T01:49:41.805Z,102987.78
2023-01-29T01:51:14.054Z,102984.75
2023-01-29T01:52:55.117Z,102985.75
2023-01-29T01:54:31.757Z,102990.66
2023-01-29T01:56:09.156Z,102987.84
2023-01-29T01:57:42.702Z,102997.22
2023-01-29T01:59:17.094Z,103000.00
2023-01-29T02:00:49.312Z,102997.91
2023-01-29T02:02:40.102Z,102990.09
2023-01-29T02:04:36.497Z,102997.25
2023-01-29T02:06:27.809Z,103002.38
2023-01-29T02:08:18.614Z,102993.91
2023-01-29T02:09:53.827Z,103006.84
2023-01-29T02:11:26.642Z,102995.03
2023-01-29T02:12:58.662Z,103004.88
2023-01-29T02:14:32.199Z,103004.47
2023-01-29T02:16:04.347Z,103012.03
2023-01-29T02:17:39.549Z,103014.59
2023-01-29T02:19:33.450Z,103020.13
2023-01-29T02:21:25.509Z,103025.25
2023-01-29T02:23:27.301Z,103017.66
2023-01-29T02:25:31.793Z,103015.31
2023-01-29T02:27:21.417Z,103008.19
2023-01-29T02:29:22.645Z,103001.13
2023-01-29T02:31:09.656Z,103010.50
2023-01-29T02:32:58.886Z,103013.84
2023-01-29T02:35:05.355Z,103013.34
2023-01-29T02:37:01.781Z,103018.13
2023-01-29T02:38:38.810Z,103017.66
2023-01-29T02:40:37.287Z,103008.28
2023-01-29T02:42:15.477Z,103005.06
2023-01-29T02:43:52.337Z,103005.97
2023-01-29T02:45:45.313Z,103002.84
2023-01-29T02:47:22.394Z,102999.28
2023-01-29T02:49:06.308Z,103000.84
2023-01-29T02:50:46.890Z,103009.41
2023-01-29T02:52:23.020Z,103010.19
2023-01-29T02:54:23.440Z,102999.16
2023-01-29T02:56:11.958Z,102996.91
2023-01-29T02:57:46.747Z,102994.53
2023-01-29T02:59:24.979Z,103002.75
2023-01-29T03:01:01.097Z,103003.28
2023-01-29T03:02:36.031Z,103004.84
2023-01-29T03:04:12.079Z,102998.59
2023-01-29T03:05:53.558Z,103011.53
2023-01-29T03:09:47.448Z,102994.59
2023-01-29T03:11:19.635Z,103003.06
2023-01-29T03:13:00.894Z,103005.63
2023-01-29T03:14:54.501Z,103015.09
2023-01-29T03:16:37.317Z,103011.88
2023-01-29T03:18:16.010Z,103007.88
2023-01-29T03:19:49.437Z,103003.78
2023-01-29T03:22:00.549Z,103002.75
2023-01-29T03:23:54.307Z,103000.06
2023-01-29T03:25:47.066Z,103005.09
2023-01-29T03:27:49.169Z,103011.22
2023-01-29T03:29:42.320Z,103003.53
2023-01-29T03:31:34.370Z,102997.63
2023-01-29T03:33:11.759Z,102999.66
2023-01-29T03:34:48.658Z,102997.63
2023-01-29T03:36:38.134Z,102994.06
2023-01-29T03:38:11.519Z,102993.94
2023-01-29T03:39:43.568Z,102993.16
2023-01-29T03:41:27.219Z,102996.38
2023-01-29T03:43:10.526Z,102998.16
2023-01-29T03:44:57.709Z,103002.53
2023-01-29T03:46:40.959Z,102998.94
2023-01-29T03:48:29.575Z,102997.94
2023-01-29T03:50:09.673Z,103008.97
2023-01-29T03:52:05.071Z,103008.44
2023-01-29T03:53:51.174Z,103007.94
2023-01-29T03:55:29.363Z,103007.94
2023-01-29T03:57:33.782Z,102998.22
2023-01-29T03:59:28.654Z,102992.31
2023-01-29T04:01:23.376Z,102993.75
2023-01-29T04:03:10.120Z,102989.66
2023-01-29T04:04:50.647Z,102988.97
2023-01-29T04:06:33.946Z,102987.31
2023-01-29T04:08:13.274Z,102981.28
2023-01-29T04:09:50.260Z,102975.28
2023-01-29T04:11:23.311Z,102967.47
2023-01-29T04:13:01.308Z,102976.94
2023-01-29T04:14:33.835Z,102973.47
2023-01-29T04:16:06.979Z,102973.72
2023-01-29T04:17:59.150Z,102966.16
2023-01-29T04:19:44.231Z,102957.44
2023-01-29T04:21:17.264Z,102957.56
2023-01-29T04:22:50.647Z,102962.56
2023-01-29T04:24:22.943Z,102955.66
2023-01-29T04:26:38.980Z,102964.13
2023-01-29T04:28:21.770Z,102958.22
2023-01-29T04:30:31.273Z,102953.75
2023-01-29T04:32:25.354Z,102953.75
2023-01-29T04:34:12.116Z,102951.19
2023-01-29T04:35:49.933Z,102956.31
2023-01-29T04:37:36.702Z,102957.09
2023-01-29T04:39:22.688Z,102957.22
2023-01-29T04:41:00.685Z,102960.78
2023-01-29T04:42:44.763Z,102957.69
2023-01-29T04:44:24.108Z,102956.13
2023-01-29T04:46:04.867Z,102947.22
2023-01-29T04:47:48.755Z,102945.44
2023-01-29T04:49:24.081Z,102953.13
2023-01-29T04:51:23.225Z,102945.56
2023-01-29T04:53:10.741Z,102949.91
2023-01-29T04:54:56.149Z,102941.44
2023-01-29T04:56:54.097Z,102947.03
2023-01-29T04:58:45.189Z,102942.16
2023-01-29T05:00:20.698Z,102942.38
2023-01-29T05:01:53.334Z,102936.59
2023-01-29T05:03:26.399Z,102935.03
2023-01-29T05:04:58.977Z,102931.81
2023-01-29T05:06:31.724Z,102929.34
2023-01-29T05:08:05.271Z,102926.13
2023-01-29T05:09:37.642Z,102929.47
2023-01-29T05:11:10.241Z,102923.56
2023-01-29T05:12:44.369Z,102923.66
2023-01-29T05:14:20.682Z,102928.41
2023-01-29T05:16:05.019Z,102916.34
2023-01-29T05:17:37.063Z,102911.97
2023-01-29T05:19:14.015Z,102911.97
2023-01-29T05:20:47.147Z,102907.59
2023-01-29T05:22:22.960Z,102905.03
2023-01-29T05:24:12.949Z,102900.97
2023-01-29T05:25:48.270Z,102898.50
2023-01-29T05:27:50.830Z,102892.81
2023-01-29T05:29:22.945Z,102897.41
2023-01-29T05:30:56.862Z,102898.06
2023-01-29T05:32:28.889Z,102897.16
2023-01-29T05:34:00.800Z,102900.53
2023-01-29T05:35:33.326Z,102896.06
2023-01-29T05:37:05.341Z,102900.41
2023-01-29T05:38:37.237Z,102898.50
2023-01-29T05:40:09.857Z,102895.16
2023-01-29T05:41:42.007Z,102896.94
2023-01-29T05:43:20.415Z,102897.06
2023-01-29T05:44:52.530Z,102902.97
2023-01-29T05:46:24.538Z,102904.66
2023-01-29T05:48:00.302Z,102905.53
2023-01-29T05:49:33.313Z,102908.09
2023-01-29T05:51:05.463Z,102903.19
2023-01-29T05:52:37.318Z,102898.28
2023-01-29T05:54:12.483Z,102906.22
2023-01-29T05:55:45.784Z,102905.44
2023-01-29T05:57:17.692Z,102893.63
2023-01-29T05:58:50.109Z,102904.09
2023-01-29T06:00:22.278Z,102910.13
2023-01-29T06:01:58.093Z,102908.47
2023-01-29T06:03:30.064Z,102910.13
2023-01-29T06:05:02.052Z,102920.63
2023-01-29T06:06:33.998Z,102919.06
2023-01-29T06:08:06.800Z,102929.22
2023-01-29T06:09:38.672Z,102927.66
2023-01-29T06:11:13.083Z,102936.38
2023-01-29T06:12:44.984Z,102932.22
2023-01-29T06:14:17.063Z,102944.28
2023-01-29T06:15:49.317Z,102945.97
2023-01-29T06:17:21.280Z,102943.63
2023-01-29T06:18:53.382Z,102951.44
2023-01-29T06:20:25.563Z,102955.91
2023-01-29T06:21:57.634Z,102953.34
2023-01-29T06:23:30.547Z,102946.53
2023-01-29T06:25:02.310Z,102942.41
2023-01-29T06:26:34.224Z,102942.97
2023-01-29T06:28:06.110Z,102934.25
2023-01-29T06:29:38.257Z,102931.69
2023-01-29T06:31:28.442Z,102935.13
2023-01-29T06:33:03.000Z,102940.28
2023-01-29T06:34:37.893Z,102941.94
2023-01-29T06:36:10.047Z,102949.75
2023-01-29T06:37:43.355Z,102958.59
2023-01-29T06:39:15.275Z,102955.47
2023-01-29T06:40:47.192Z,102948.78
2023-01-29T06:42:19.666Z,102938.50
2023-01-29T06:43:51.895Z,102938.72
2023-01-29T06:45:24.289Z,102931.81
2023-01-29T06:46:56.193Z,102926.66
2023-01-29T06:48:27.986Z,102923.97
2023-01-29T06:49:59.859Z,102921.53
2023-01-29T06:51:31.836Z,102919.84
2023-01-29T06:53:03.705Z,102913.16
2023-01-29T06:54:35.559Z,102914.94
2023-01-29T06:56:07.867Z,102909.94
2023-01-29T06:57:39.723Z,102905.03
2023-01-29T06:59:12.513Z,102912.06
2023-01-29T07:00:44.350Z,102901.78
2023-01-29T07:02:16.420Z,102905.25
2023-01-29T07:03:51.076Z,102904.25
2023-01-29T07:05:22.931Z,102906.94
2023-01-29T07:06:54.836Z,102895.78
2023-01-29T07:08:26.715Z,102904.59
2023-01-29T07:09:58.605Z,102898.78
2023-01-29T07:11:30.798Z,102886.72
2023-01-29T07:13:02.672Z,102896.00
2023-01-29T07:14:34.568Z,102886.72
2023-01-29T07:16:07.749Z,102893.63
2023-01-29T07:17:40.064Z,102896.31
2023-01-29T07:19:11.969Z,102898.66
2023-01-29T07:20:43.846Z,102903.03
2023-01-29T07:22:16.515Z,102903.03
2023-01-29T07:23:48.333Z,102906.47
2023-01-29T07:25:21.346Z,102906.69
2023-01-29T07:26:53.885Z,102898.09
2023-01-29T07:28:25.857Z,102897.22
2023-01-29T07:29:57.784Z,102896.22
2023-01-29T07:31:29.973Z,102907.47
2023-01-29T07:33:08.371Z,102904.91
2023-01-29T07:34:40.282Z,102908.38
2023-01-29T07:36:12.828Z,102900.91
2023-01-29T07:37:44.841Z,102901.91
2023-01-29T07:39:16.787Z,102902.91
2023-01-29T07:40:49.244Z,102900.44
2023-01-29T07:42:21.257Z,102895.19
2023-01-29T07:43:53.342Z,102896.19
2023-01-29T07:45:25.876Z,102894.41
2023-01-29T07:47:00.238Z,102892.72
2023-01-29T07:48:32.302Z,102886.81
2023-01-29T07:50:05.999Z,102882.69
2023-01-29T07:51:37.933Z,102880.09
2023-01-29T07:53:15.241Z,102882.00
2023-01-29T07:54:47.261Z,102884.56
2023-01-29T07:56:19.252Z,102877.75
2023-01-29T08:00:15.832Z,102894.94
2023-01-29T08:01:48.067Z,102894.06
2023-01-29T08:03:20.989Z,102894.84
2023-01-29T08:04:53.035Z,102888.03
2023-01-29T08:06:25.262Z,102882.09
2023-01-29T08:08:06.107Z,102899.41
2023-01-29T08:09:38.810Z,102895.16
2023-01-29T08:11:10.827Z,102899.63
2023-01-29T08:12:42.873Z,102897.84
2023-01-29T08:14:15.063Z,102900.31
2023-01-29T08:15:47.471Z,102899.41
2023-01-29T08:17:19.623Z,102896.97
2023-01-29T08:18:51.642Z,102907.34
2023-01-29T08:20:23.703Z,102908.13
2023-01-29T08:21:55.695Z,102904.09
2023-01-29T08:23:27.745Z,102898.06
2023-01-29T08:25:20.896Z,102894.72
2023-01-29T08:26:51.917Z,102903.41
2023-01-29T08:28:23.992Z,102900.97
2023-01-29T08:29:55.935Z,102911.25
2023-01-29T08:31:28.211Z,102917.94
2023-01-29T08:33:00.307Z,102907.78
2023-01-29T08:34:32.292Z,102904.31
2023-01-29T08:36:04.573Z,102897.59
2023-01-29T08:37:36.561Z,102883.88
2023-01-29T08:39:08.642Z,102886.31
2023-01-29T08:40:40.630Z,102890.69
2023-01-29T08:42:12.658Z,102881.97
2023-01-29T08:43:50.788Z,102871.91
2023-01-29T08:45:22.842Z,102876.25
2023-01-29T08:46:54.724Z,102860.75
2023-01-29T08:48:27.100Z,102870.13
2023-01-29T08:49:59.159Z,102876.03
2023-01-29T08:51:31.302Z,102868.66
2023-01-29T08:53:05.576Z,102867.78
2023-01-29T08:54:37.615Z,102867.66
2023-01-29T08:56:09.960Z,102868.66
2023-01-29T08:57:42.239Z,102868.78
2023-01-29T08:59:14.634Z,102859.38
2023-01-29T09:00:46.794Z,102861.06
2023-01-29T09:02:18.811Z,102871.22
2023-01-29T09:03:52.633Z,102869.66
2023-01-29T09:05:35.404Z,102860.50
2023-01-29T09:07:07.586Z,102864.09
2023-01-29T09:08:40.048Z,102863.84
2023-01-29T09:10:12.592Z,102865.63
2023-01-29T09:11:44.851Z,102863.06
2023-01-29T09:13:18.310Z,102853.72
2023-01-29T09:14:50.336Z,102850.47
2023-01-29T09:16:22.570Z,102854.13
2023-01-29T09:17:54.773Z,102846.63
2023-01-29T09:19:26.888Z,102849.31
2023-01-29T09:20:58.969Z,102857.91
2023-01-29T09:22:32.312Z,102862.28
2023-01-29T09:24:04.817Z,102852.88
2023-01-29T09:25:37.613Z,102852.88
2023-01-29T09:27:10.253Z,102847.84
2023-01-29T09:28:42.207Z,102844.59
2023-01-29T09:30:14.791Z,102842.81
2023-01-29T09:31:47.251Z,102836.78
2023-01-29T09:33:19.964Z,102838.56
2023-01-29T09:34:52.131Z,102840.44
2023-01-29T09:36:24.207Z,102838.09
2023-01-29T09:37:56.536Z,102845.00
2023-01-29T09:39:28.641Z,102835.72
2023-01-29T09:41:09.465Z,102836.63
2023-01-29T09:42:45.530Z,102842.75
2023-01-29T09:44:25.557Z,102836.03
2023-01-29T09:46:30.004Z,102832.00
2023-01-29T09:48:03.872Z,102832.09
2023-01-29T09:49:42.625Z,102829.41
2023-01-29T09:51:28.092Z,102823.69
2023-01-29T09:53:42.846Z,102834.09
2023-01-29T09:55:39.043Z,102828.25
2023-01-29T09:57:18.060Z,102824.09
2023-01-29T09:58:50.125Z,102823.31
2023-01-29T10:00:48.939Z,102822.75
2023-01-29T10:02:41.506Z,102815.13
2023-01-29T10:04:37.226Z,102825.66
2023-01-29T10:06:33.499Z,102824.88
2023-01-29T10:08:25.014Z,102830.22
2023-01-29T10:10:30.237Z,102836.25
2023-01-29T10:12:16.792Z,102833.69
2023-01-29T10:13:59.334Z,102830.31
2023-01-29T10:15:43.429Z,102824.47
2023-01-29T10:17:33.212Z,102817.88
2023-01-29T10:19:05.311Z,102818.06
2023-01-29T10:20:43.824Z,102830.13
2023-01-29T10:22:52.462Z,102829.44
2023-01-29T10:24:39.315Z,102834.50
2023-01-29T10:26:12.202Z,102822.53
2023-01-29T10:27:47.906Z,102824.50
2023-01-29T10:29:22.320Z,102825.31
2023-01-29T10:31:01.651Z,102828.06
2023-01-29T10:32:35.970Z,102830.84
2023-01-29T10:34:14.843Z,102818.97
2023-01-29T10:35:54.710Z,102820.97
2023-01-29T10:37:37.745Z,102810.06
2023-01-29T10:39:17.666Z,102817.91
2023-01-29T10:41:10.682Z,102817.09
2023-01-29T10:42:47.933Z,102805.81
2023-01-29T10:44:43.798Z,102803.44
2023-01-29T10:46:35.285Z,102810.38
2023-01-29T10:48:31.844Z,102810.56
2023-01-29T10:50:39.817Z,102812.47
2023-01-29T10:52:42.348Z,102806.53
2023-01-29T10:54:29.547Z,102811.75
2023-01-29T10:56:32.133Z,102807.66
2023-01-29T10:58:28.053Z,102806.72
2023-01-29T11:00:13.132Z,102806.84
2023-01-29T11:01:45.195Z,102801.81
2023-01-29T11:03:27.871Z,102802.69
2023-01-29T11:05:00.440Z,102791.00
2023-01-29T11:06:34.748Z,102788.34
2023-01-29T11:08:16.130Z,102786.75
2023-01-29T11:10:05.550Z,102794.47
2023-01-29T11:11:45.358Z,102793.78
2023-01-29T11:13:18.863Z,102789.72
2023-01-29T11:14:54.987Z,102786.34
2023-01-29T11:16:30.418Z,102788.22
2023-01-29T11:18:20.502Z,102791.78
2023-01-29T11:19:53.584Z,102779.81
2023-01-29T11:21:26.760Z,102781.69
2023-01-29T11:22:59.551Z,102780.78
2023-01-29T11:24:31.640Z,102775.63
2023-01-29T11:26:05.097Z,102767.03
2023-01-29T11:27:57.560Z,102769.78
2023-01-29T11:29:39.818Z,102766.63
2023-01-29T11:31:29.868Z,102764.13
2023-01-29T11:33:08.576Z,102755.72
2023-01-29T11:35:01.249Z,102747.19
2023-01-29T11:36:38.392Z,102743.91
2023-01-29T11:38:23.397Z,102743.13
2023-01-29T11:39:55.475Z,102739.84
2023-01-29T11:41:27.739Z,102739.03
2023-01-29T11:43:31.328Z,102733.09
2023-01-29T11:45:03.763Z,102728.84
2023-01-29T11:46:35.980Z,102717.03
2023-01-29T11:48:19.187Z,102720.50
2023-01-29T11:50:02.333Z,102712.88
2023-01-29T11:51:35.402Z,102708.69
2023-01-29T11:53:07.983Z,102696.91
2023-01-29T11:54:54.305Z,102696.31
2023-01-29T11:56:43.377Z,102686.97
2023-01-29T11:58:24.134Z,102688.75
2023-01-29T12:00:00.138Z,102683.00
2023-01-29T12:01:36.612Z,102671.97
2023-01-29T12:03:14.316Z,102671.19
2023-01-29T12:04:47.153Z,102667.72
2023-01-29T12:06:22.735Z,102664.63
2023-01-29T12:08:02.446Z,102656.97
2023-01-29T12:09:34.582Z,102658.84
2023-01-29T12:11:13.583Z,102645.16
2023-01-29T12:12:45.715Z,102648.63
2023-01-29T12:14:34.664Z,102640.97
2023-01-29T12:16:31.601Z,102642.06
2023-01-29T12:18:33.535Z,102638.75
2023-01-29T12:20:25.107Z,102631.13
2023-01-29T12:22:21.131Z,102632.00
2023-01-29T12:23:59.120Z,102633.78
2023-01-29T12:25:43.071Z,102620.09
2023-01-29T12:27:25.175Z,102615.75
2023-01-29T12:29:12.765Z,102601.25
2023-01-29T12:31:37.926Z,102596.28
2023-01-29T12:33:47.193Z,102592.81
2023-01-29T12:35:26.327Z,102582.50
2023-01-29T12:37:26.218Z,102576.44
2023-01-29T12:38:59.805Z,102565.25
2023-01-29T12:40:56.579Z,102564.53
2023-01-29T12:42:30.243Z,102565.31
2023-01-29T12:44:16.684Z,102564.63
2023-01-29T12:45:52.668Z,102569.84
2023-01-29T12:47:31.852Z,102564.69
2023-01-29T12:49:11.565Z,102570.75
2023-01-29T12:50:43.706Z,102562.94
2023-01-29T12:52:19.750Z,102568.16
2023-01-29T12:54:17.230Z,102570.66
2023-01-29T12:55:55.743Z,102567.38
2023-01-29T12:58:03.256Z,102565.75
2023-01-29T12:59:43.968Z,102561.50
2023-01-29T13:01:27.927Z,102564.06
2023-01-29T13:03:01.946Z,102562.28
2023-01-29T13:04:38.360Z,102568.47
2023-01-29T13:06:13.964Z,102559.94
2023-01-29T13:07:50.400Z,102559.94
2023-01-29T13:09:28.313Z,102554.78
2023-01-29T13:11:02.459Z,102564.19
2023-01-29T13:12:35.210Z,102558.81
2023-01-29T13:14:17.450Z,102558.81
2023-01-29T13:15:49.575Z,102550.13
2023-01-29T13:17:36.155Z,102552.78
2023-01-29T13:19:20.220Z,102554.56
2023-01-29T13:20:52.202Z,102551.09
2023-01-29T13:22:29.992Z,102549.31
2023-01-29T13:24:22.448Z,102549.41
2023-01-29T13:25:55.015Z,102544.25
2023-01-29T13:27:29.251Z,102547.72
2023-01-29T13:29:01.808Z,102545.84
2023-01-29T13:30:35.318Z,102545.84
2023-01-29T13:32:08.346Z,102544.06
2023-01-29T13:33:42.454Z,102547.47
2023-01-29T13:35:15.736Z,102546.81
2023-01-29T13:36:59.101Z,102549.22
2023-01-29T13:38:33.539Z,102547.47
2023-01-29T13:40:08.979Z,102550.13
2023-01-29T13:41:42.850Z,102540.69
2023-01-29T13:43:20.796Z,102536.44
2023-01-29T13:44:57.144Z,102535.72
2023-01-29T13:46:30.142Z,102534.94
2023-01-29T13:48:20.598Z,102529.97
2023-01-29T13:50:01.634Z,102530.75
2023-01-29T13:51:36.366Z,102534.94
2023-01-29T13:53:09.673Z,102523.03
2023-01-29T13:54:42.111Z,102519.63
2023-01-29T13:56:35.691Z,102514.56
2023-01-29T13:58:14.942Z,102515.44
2023-01-29T13:59:55.493Z,102512.88
2023-01-29T14:01:48.901Z,102514.56
2023-01-29T14:03:23.568Z,102519.72
2023-01-29T14:05:33.912Z,102518.13
2023-01-29T14:07:44.112Z,102508.69
2023-01-29T14:10:02.317Z,102501.13
2023-01-29T14:11:36.096Z,102510.47
2023-01-29T14:13:20.086Z,102502.00
2023-01-29T14:15:18.365Z,102502.81
2023-01-29T14:16:52.805Z,102498.38
2023-01-29T14:18:28.582Z,102498.38
2023-01-29T14:20:17.668Z,102501.94
2023-01-29T14:21:50.525Z,102497.66
2023-01-29T14:23:42.533Z,102492.59
2023-01-29T14:25:19.150Z,102490.91
2023-01-29T14:26:55.882Z,102492.66
2023-01-29T14:28:30.774Z,102495.34
2023-01-29T14:30:07.697Z,102487.59
2023-01-29T14:31:45.342Z,102498.81
2023-01-29T14:33:28.752Z,102490.25
2023-01-29T14:35:01.473Z,102495.50
2023-01-29T14:36:41.191Z,102495.41
2023-01-29T14:38:15.041Z,102495.41
2023-01-29T14:39:52.533Z,102495.59
2023-01-29T14:41:30.517Z,102498.25
2023-01-29T14:43:09.845Z,102501.72
2023-01-29T14:44:44.554Z,102501.63
2023-01-29T14:46:35.122Z,102494.78
2023-01-29T14:48:09.915Z,102494.84
2023-01-29T14:50:02.221Z,102494.94
2023-01-29T14:51:37.730Z,102497.59
2023-01-29T14:53:24.753Z,102489.78
2023-01-29T14:55:00.473Z,102490.94
2023-01-29T14:56:37.061Z,102495.19
2023-01-29T14:58:16.045Z,102485.75
2023-01-29T14:59:59.634Z,102482.47
2023-01-29T15:01:47.576Z,102482.38
2023-01-29T15:03:25.320Z,102478.09
2023-01-29T15:05:05.443Z,102477.31
2023-01-29T15:06:48.579Z,102479.06
2023-01-29T15:08:30.261Z,102479.06
2023-01-29T15:10:23.050Z,102473.19
2023-01-29T15:12:23.234Z,102476.59
2023-01-29T15:14:02.903Z,102472.31
2023-01-29T15:15:56.454Z,102464.66
2023-01-29T15:17:46.536Z,102458.59
2023-01-29T15:19:24.236Z,102463.75
2023-01-29T15:21:15.088Z,102460.28
2023-01-29T15:22:46.956Z,102459.50
2023-01-29T15:24:18.841Z,102445.69
2023-01-29T15:25:53.353Z,102443.22
2023-01-29T15:27:25.326Z,102446.66
2023-01-29T15:29:04.329Z,102450.13
2023-01-29T15:30:38.006Z,102449.25
2023-01-29T15:32:12.765Z,102453.69
2023-01-29T15:33:46.733Z,102448.38
2023-01-29T15:35:31.867Z,102450.22
2023-01-29T15:37:04.348Z,102440.72
2023-01-29T15:38:36.372Z,102445.78
2023-01-29T15:40:15.685Z,102443.28
2023-01-29T15:41:48.029Z,102443.22
2023-01-29T15:43:30.626Z,102428.63
2023-01-29T15:45:03.554Z,102427.72
2023-01-29T15:46:36.252Z,102428.69
2023-01-29T15:48:24.193Z,102429.56
2023-01-29T15:49:57.515Z,102423.53
2023-01-29T15:51:29.467Z,102423.53
2023-01-29T15:53:04.359Z,102427.81
2023-01-29T15:54:36.516Z,102420.06
2023-01-29T15:56:10.762Z,102415.78
2023-01-29T15:57:44.231Z,102424.41
2023-01-29T15:59:25.235Z,102414.09
2023-01-29T16:00:58.474Z,102409.91
2023-01-29T16:02:36.389Z,102420.31
2023-01-29T16:04:13.481Z,102416.03
2023-01-29T16:05:45.437Z,102411.69
2023-01-29T16:07:17.988Z,102412.47
2023-01-29T16:08:52.318Z,102411.59
2023-01-29T16:10:28.956Z,102403.06
2023-01-29T16:12:01.055Z,102401.28
2023-01-29T16:13:37.385Z,102397.88
2023-01-29T16:15:30.022Z,102391.84
2023-01-29T16:17:24.030Z,102388.47
2023-01-29T16:19:00.762Z,102384.91
2023-01-29T16:20:38.251Z,102385.88
2023-01-29T16:22:10.261Z,102387.56
2023-01-29T16:23:46.537Z,102385.06
2023-01-29T16:25:19.120Z,102385.88
2023-01-29T16:26:53.887Z,102393.69
2023-01-29T16:28:25.865Z,102381.75
2023-01-29T16:29:58.018Z,102387.72
2023-01-29T16:31:33.297Z,102381.69
2023-01-29T16:33:06.931Z,102380.78
2023-01-29T16:34:41.056Z,102377.41
2023-01-29T16:36:19.683Z,102379.09
2023-01-29T16:37:53.342Z,102371.34
2023-01-29T16:39:28.397Z,102379.09
2023-01-29T16:41:22.090Z,102386.84
2023-01-29T16:43:31.331Z,102373.13
2023-01-29T16:45:12.870Z,102370.47
2023-01-29T16:46:49.229Z,102378.28
2023-01-29T16:48:31.264Z,102372.31
2023-01-29T16:50:36.076Z,102372.31
2023-01-29T16:52:23.774Z,102366.34
2023-01-29T16:54:07.148Z,102371.53
2023-01-29T16:55:42.876Z,102368.22
2023-01-29T16:57:22.000Z,102367.25
2023-01-29T16:58:54.329Z,102368.13
2023-01-29T17:00:28.346Z,102358.69
2023-01-29T17:02:00.630Z,102363.03
2023-01-29T17:03:34.534Z,102365.63
2023-01-29T17:05:20.201Z,102379.53
2023-01-29T17:06:58.068Z,102377.03
2023-01-29T17:08:35.840Z,102368.47
2023-01-29T17:10:08.386Z,102366.88
2023-01-29T17:11:41.919Z,102353.88
2023-01-29T17:13:21.762Z,102354.75
2023-01-29T17:15:03.144Z,102348.66
2023-01-29T17:16:38.738Z,102353.88
2023-01-29T17:18:38.264Z,102343.56
2023-01-29T17:20:17.020Z,102340.09
2023-01-29T17:21:49.101Z,102349.59
2023-01-29T17:23:21.850Z,102340.09
2023-01-29T17:24:54.153Z,102339.28
2023-01-29T17:26:27.802Z,102329.91
2023-01-29T17:28:01.946Z,102331.63
2023-01-29T17:29:36.292Z,102316.13
2023-01-29T17:31:08.916Z,102324.75
2023-01-29T17:32:47.484Z,102316.13
2023-01-29T17:34:20.361Z,102322.19
2023-01-29T17:36:01.480Z,102317.09
2023-01-29T17:37:36.553Z,102325.72
2023-01-29T17:39:26.904Z,102348.88
2023-01-29T17:41:09.604Z,102348.00
2023-01-29T17:42:41.827Z,102354.03
2023-01-29T17:44:14.002Z,102358.38
2023-01-29T17:45:46.951Z,102344.59
2023-01-29T17:47:31.459Z,102345.50
2023-01-29T17:49:04.950Z,102345.50
2023-01-29T17:50:39.130Z,102339.44
2023-01-29T17:52:13.720Z,102343.72
2023-01-29T17:53:47.189Z,102332.59
2023-01-29T17:55:19.994Z,102339.44
2023-01-29T17:56:53.252Z,102336.94
2023-01-29T17:58:27.033Z,102332.66
2023-01-29T17:59:59.089Z,102330.06
2023-01-29T18:01:31.503Z,102323.16
2023-01-29T18:03:03.921Z,102328.38
2023-01-29T18:04:38.533Z,102322.41
2023-01-29T18:06:12.890Z,102312.00
2023-01-29T18:07:46.760Z,102312.91
2023-01-29T18:09:21.030Z,102315.56
2023-01-29T18:10:53.110Z,102313.78
2023-01-29T18:12:27.422Z,102310.31
2023-01-29T18:13:59.386Z,102314.66
2023-01-29T18:15:36.654Z,102318.06
2023-01-29T18:17:08.777Z,102311.28
2023-01-29T18:18:40.897Z,102313.78
2023-01-29T18:20:18.575Z,102311.28
2023-01-29T18:21:50.822Z,102306.03
2023-01-29T18:23:23.171Z,102301.84
2023-01-29T18:24:57.114Z,102295.78
2023-01-29T18:26:29.250Z,102293.22
2023-01-29T18:28:02.100Z,102302.72
2023-01-29T18:29:34.161Z,102295.94
2023-01-29T18:31:06.372Z,102301.84
2023-01-29T18:32:38.894Z,102286.34
2023-01-29T18:34:10.969Z,102298.44
2023-01-29T18:35:47.027Z,102289.00
2023-01-29T18:37:19.032Z,102288.13
2023-01-29T18:38:51.013Z,102276.03
2023-01-29T18:40:23.072Z,102271.91
2023-01-29T18:41:55.371Z,102272.72
2023-01-29T18:43:27.443Z,102269.25
2023-01-29T18:45:08.180Z,102264.97
2023-01-29T18:46:40.179Z,102266.66
2023-01-29T18:48:12.139Z,102267.56
2023-01-29T18:49:44.232Z,102269.25